Time;durP1;ratioP1;P1;durP2;ratioP2;P2;SDS_P1;SDS_P2;PMS_P1;PMS_P2;Temp;Humidity;BMP_temperature;BMP_pressure;BME280_temperature;BME280_humidity;BME280_pressure;Samples;Min_cycle;Max_cycle;Signal;HPM_P1;HPM_P2
2021/12/07 00:01:36;;;;;;;20.57;14.10;;;3.20;99.90;;;;;;5052808;28;20721;-54
2021/12/07 00:04:06;;;;;;;16.33;13.03;;;3.10;99.90;;;;;;5053312;28;20197;-54
2021/12/07 00:06:35;;;;;;;17.50;13.27;;;3.10;99.90;;;;;;5053080;28;20229;-55
2021/12/07 00:09:05;;;;;;;17.57;13.47;;;3.10;99.90;;;;;;5052665;28;20245;-54
2021/12/07 00:11:33;;;;;;;18.63;14.60;;;3.10;99.90;;;;;;5053128;28;20659;-54
2021/12/07 00:14:11;;;;;;;18.07;13.70;;;3.10;99.90;;;;;;5052586;28;20209;-55
2021/12/07 00:16:41;;;;;;;16.43;13.77;;;3.10;99.90;;;;;;5052851;28;20213;-57
2021/12/07 00:19:09;;;;;;;17.90;14.40;;;3.00;99.90;;;;;;5053039;28;20244;-54
2021/12/07 00:21:37;;;;;;;18.63;14.27;;;3.00;99.90;;;;;;5053193;28;20257;-56
2021/12/07 00:24:07;;;;;;;18.30;13.97;;;2.90;99.90;;;;;;5052683;28;20233;-55
2021/12/07 00:26:37;;;;;;;22.23;15.40;;;2.90;99.90;;;;;;5052822;28;20826;-55
2021/12/07 00:29:06;;;;;;;22.43;16.57;;;2.90;99.90;;;;;;5052698;28;20209;-56
2021/12/07 00:31:40;;;;;;;20.83;15.90;;;2.90;99.90;;;;;;5052554;28;20234;-55
2021/12/07 00:34:16;;;;;;;21.60;15.87;;;2.80;99.90;;;;;;5052808;28;20261;-55
2021/12/07 00:36:48;;;;;;;21.17;15.47;;;2.80;99.90;;;;;;5052737;28;20203;-55
2021/12/07 00:39:19;;;;;;;23.87;16.27;;;2.70;99.90;;;;;;5052726;28;20233;-56
2021/12/07 00:41:48;;;;;;;21.20;14.60;;;2.70;99.90;;;;;;5051668;28;20271;-55
2021/12/07 00:44:16;;;;;;;23.37;17.03;;;2.70;99.90;;;;;;5052384;28;20255;-56
2021/12/07 00:46:45;;;;;;;22.10;15.90;;;2.60;99.90;;;;;;5052065;28;20252;-55
2021/12/07 00:49:16;;;;;;;21.00;15.93;;;2.60;99.90;;;;;;5052549;28;20205;-55
2021/12/07 00:51:44;;;;;;;23.03;17.23;;;2.60;99.90;;;;;;5052255;28;20423;-54
2021/12/07 00:54:13;;;;;;;19.00;15.27;;;2.70;99.90;;;;;;5051529;28;20233;-57
2021/12/07 00:56:41;;;;;;;20.40;14.40;;;2.70;99.90;;;;;;5052297;28;20233;-57
2021/12/07 00:59:09;;;;;;;19.20;14.50;;;2.60;99.90;;;;;;5051916;28;20255;-54
2021/12/07 01:01:38;;;;;;;19.43;14.47;;;2.60;99.90;;;;;;5051946;28;20592;-51
2021/12/07 01:04:07;;;;;;;19.73;14.40;;;2.50;99.90;;;;;;5050709;28;20205;-56
2021/12/07 01:06:47;;;;;;;17.10;13.03;;;2.50;99.90;;;;;;5051390;28;20218;-54
2021/12/07 01:09:24;;;;;;;17.10;12.57;;;2.50;99.90;;;;;;5051156;28;20986;-56
2021/12/07 01:25:53;;;;;;;10.27;8.47;;;2.50;99.90;;;;;;5051601;28;20252;-56
2021/12/07 01:28:25;;;;;;;12.20;9.13;;;2.60;99.90;;;;;;5051171;28;20244;-55
2021/12/07 01:30:58;;;;;;;8.93;7.50;;;2.50;99.90;;;;;;5051760;28;20266;-56
2021/12/07 01:33:46;;;;;;;10.10;8.20;;;2.50;99.90;;;;;;5031288;28;20648;-55
2021/12/07 01:45:14;;;;;;;9.33;8.03;;;2.50;99.90;;;;;;5012610;28;20242;-55
2021/12/07 01:47:53;;;;;;;8.70;7.80;;;2.50;99.90;;;;;;5051286;28;20248;-53
2021/12/07 01:50:49;;;;;;;9.63;8.23;;;2.40;99.90;;;;;;5050616;28;20320;-54
2021/12/07 02:01:32;;;;;;;11.10;8.90;;;2.30;99.90;;;;;;5051216;28;20256;-54
2021/12/07 02:04:00;;;;;;;10.47;8.47;;;2.30;99.90;;;;;;5051558;28;20297;-55
2021/12/07 02:06:29;;;;;;;10.20;8.97;;;2.40;99.90;;;;;;5050712;28;20232;-56
2021/12/07 02:08:57;;;;;;;10.93;9.07;;;2.30;99.90;;;;;;5051169;28;20241;-56
2021/12/07 02:11:26;;;;;;;11.60;9.77;;;2.30;99.90;;;;;;5050391;28;20271;-56
2021/12/07 02:16:41;;;;;;;8.53;7.37;;;2.30;99.90;;;;;;5041480;28;20559;-56
2021/12/07 02:19:09;;;;;;;9.40;8.30;;;2.40;99.90;;;;;;5035118;28;20258;-56
2021/12/07 02:21:38;;;;;;;9.20;8.20;;;2.40;99.90;;;;;;5035185;28;20259;-55
2021/12/07 02:24:06;;;;;;;10.13;8.73;;;2.40;99.90;;;;;;5035128;28;20257;-55
2021/12/07 02:26:35;;;;;;;9.77;8.23;;;2.30;99.90;;;;;;5034878;28;20244;-55
2021/12/07 02:29:04;;;;;;;10.70;9.00;;;2.30;99.90;;;;;;5034868;28;20243;-55
2021/12/07 02:31:33;;;;;;;9.20;8.23;;;2.30;99.90;;;;;;5039711;28;20266;-55
2021/12/07 02:34:02;;;;;;;8.73;7.83;;;2.30;99.90;;;;;;5054896;28;20233;-54
2021/12/07 02:36:30;;;;;;;9.67;8.17;;;2.40;99.90;;;;;;5054376;28;20857;-54
2021/12/07 02:39:00;;;;;;;9.10;8.20;;;2.40;99.90;;;;;;5054797;28;20243;-55
2021/12/07 02:41:28;;;;;;;9.60;7.37;;;2.40;99.90;;;;;;5054516;28;20257;-56
2021/12/07 02:43:56;;;;;;;8.50;7.67;;;2.40;99.90;;;;;;5035962;28;20236;-55
2021/12/07 02:46:24;;;;;;;8.40;7.57;;;2.40;99.90;;;;;;5034733;28;20241;-55
2021/12/07 02:48:52;;;;;;;10.00;7.97;;;2.40;99.90;;;;;;5034447;28;20256;-56
2021/12/07 02:51:20;;;;;;;8.70;7.60;;;2.40;99.90;;;;;;5034172;28;20261;-55
2021/12/07 02:53:49;;;;;;;8.23;7.43;;;2.40;99.90;;;;;;5051149;28;20237;-55
2021/12/07 02:56:18;;;;;;;8.67;7.77;;;2.40;99.90;;;;;;5054652;28;20289;-55
2021/12/07 02:58:46;;;;;;;8.27;7.47;;;2.40;99.90;;;;;;5036383;28;20241;-54
2021/12/07 03:01:21;;;;;;;8.20;7.40;;;2.40;99.90;;;;;;5034073;28;20669;-56
2021/12/07 03:03:58;;;;;;;7.93;7.13;;;2.30;99.90;;;;;;5034399;28;20241;-56
2021/12/07 03:06:35;;;;;;;8.30;7.37;;;2.30;99.90;;;;;;5034103;28;20697;-55
2021/12/07 03:09:40;;;;;;;7.60;6.90;;;2.30;99.90;;;;;;5034250;28;20206;-55
2021/12/07 03:26:11;;;;;;;7.60;6.80;;;2.40;99.90;;;;;;5052457;28;20186;-56
2021/12/07 03:28:42;;;;;;;7.47;6.63;;;2.40;99.90;;;;;;5053447;28;20296;-60
2021/12/07 03:31:11;;;;;;;7.83;6.90;;;2.50;99.90;;;;;;5053734;28;20225;-54
2021/12/07 03:33:40;;;;;;;7.90;7.07;;;2.50;99.90;;;;;;5053743;28;20220;-55
2021/12/07 03:36:13;;;;;;;8.43;7.50;;;2.50;99.90;;;;;;5053385;28;20702;-56
2021/12/07 03:38:41;;;;;;;8.20;7.00;;;2.50;99.90;;;;;;5053559;28;20791;-54
2021/12/07 03:41:10;;;;;;;8.00;6.70;;;2.50;99.90;;;;;;5053488;28;20713;-54
2021/12/07 03:43:40;;;;;;;8.20;7.40;;;2.50;99.90;;;;;;5053336;28;20279;-56
2021/12/07 03:46:08;;;;;;;7.90;7.10;;;2.60;99.90;;;;;;5053719;28;20229;-55
2021/12/07 03:48:37;;;;;;;7.03;6.37;;;2.60;99.90;;;;;;5053511;28;20216;-56
2021/12/07 03:51:05;;;;;;;8.13;7.33;;;2.60;99.90;;;;;;5053430;28;20257;-56
2021/12/07 03:53:34;;;;;;;7.70;7.00;;;2.50;99.90;;;;;;5052669;28;20269;-55
2021/12/07 03:56:05;;;;;;;9.10;8.20;;;2.60;99.90;;;;;;5053434;28;20586;-54
2021/12/07 03:58:34;;;;;;;8.03;7.20;;;2.60;99.90;;;;;;5053340;28;20246;-55
2021/12/07 04:01:06;;;;;;;7.33;6.63;;;2.70;99.90;;;;;;5053073;28;20653;-54
2021/12/07 04:03:36;;;;;;;7.87;7.10;;;2.70;99.90;;;;;;5053208;28;20209;-55
2021/12/07 04:06:07;;;;;;;7.03;6.40;;;2.60;99.90;;;;;;5053464;28;20236;-55
2021/12/07 04:08:37;;;;;;;8.70;7.27;;;2.60;99.90;;;;;;5053111;28;20212;-56
2021/12/07 04:11:05;;;;;;;8.10;7.33;;;2.70;99.90;;;;;;5052875;28;20240;-56
2021/12/07 04:13:34;;;;;;;7.90;7.20;;;2.70;99.90;;;;;;5053063;28;20619;-56
2021/12/07 04:16:06;;;;;;;8.60;7.80;;;2.70;99.90;;;;;;5052815;28;20209;-55
2021/12/07 04:18:35;;;;;;;7.80;7.10;;;2.70;99.90;;;;;;5053301;28;20292;-56
2021/12/07 04:21:04;;;;;;;8.93;8.03;;;2.70;99.90;;;;;;5052634;28;20650;-55
2021/12/07 04:23:34;;;;;;;7.90;7.10;;;2.80;99.90;;;;;;5052655;28;20705;-54
2021/12/07 04:26:06;;;;;;;7.60;6.90;;;2.80;99.90;;;;;;5052848;28;20816;-56
2021/12/07 04:28:34;;;;;;;8.00;7.20;;;2.80;99.90;;;;;;5052542;28;20248;-55
2021/12/07 04:31:03;;;;;;;7.60;6.90;;;2.80;99.90;;;;;;5052784;28;20707;-55
2021/12/07 04:33:33;;;;;;;8.13;7.33;;;2.90;99.90;;;;;;5052403;28;20323;-56
2021/12/07 04:36:08;;;;;;;8.90;8.00;;;2.90;99.90;;;;;;5052378;28;20654;-55
2021/12/07 04:38:36;;;;;;;9.13;8.23;;;2.80;99.90;;;;;;5052107;28;20201;-56
2021/12/07 04:41:05;;;;;;;8.53;7.73;;;2.80;99.90;;;;;;5052776;28;20259;-56
2021/12/07 04:43:33;;;;;;;8.97;8.07;;;2.90;99.90;;;;;;5052064;28;20229;-55
2021/12/07 04:46:11;;;;;;;9.77;8.77;;;2.90;99.90;;;;;;5052287;28;20247;-55
2021/12/07 04:59:48;;;;;;;9.70;8.70;;;3.00;99.90;;;;;;5032168;28;20234;-55
2021/12/07 05:02:18;;;;;;;10.83;9.30;;;3.00;99.90;;;;;;5032435;28;20600;-54
2021/12/07 05:04:47;;;;;;;10.60;9.50;;;3.00;99.90;;;;;;5032072;28;20222;-55
2021/12/07 05:07:23;;;;;;;9.37;8.43;;;3.00;99.90;;;;;;5031649;28;20704;-54
2021/12/07 05:12:53;;;;;;;8.77;7.87;;;3.00;99.90;;;;;;5021810;28;20232;-54
2021/12/07 05:15:28;;;;;;;9.90;9.00;;;3.00;99.90;;;;;;5032053;28;20711;-56
2021/12/07 05:18:08;;;;;;;10.90;9.83;;;3.00;99.90;;;;;;5031828;28;20243;-55
2021/12/07 05:34:41;;;;;;;9.40;8.53;;;3.10;99.90;;;;;;5051762;28;20254;-54
2021/12/07 05:39:57;;;;;;;9.57;8.67;;;3.10;99.90;;;;;;5051718;28;20258;-55
2021/12/07 05:42:25;;;;;;;9.47;8.57;;;3.10;99.90;;;;;;5051270;28;20209;-56
2021/12/07 05:44:55;;;;;;;9.63;8.73;;;3.10;99.90;;;;;;5051116;28;20262;-55
2021/12/07 05:47:23;;;;;;;9.97;8.97;;;3.10;99.90;;;;;;5051172;28;20742;-56
2021/12/07 05:49:52;;;;;;;9.77;8.77;;;3.10;99.90;;;;;;5050100;28;20229;-54
2021/12/07 05:52:21;;;;;;;11.20;9.93;;;3.10;99.90;;;;;;5051075;28;20709;-55
2021/12/07 05:54:49;;;;;;;10.23;9.23;;;3.10;99.90;;;;;;5050948;28;20702;-56
2021/12/07 05:57:17;;;;;;;11.27;9.60;;;3.10;99.90;;;;;;5050981;28;20760;-56
2021/12/07 05:59:46;;;;;;;10.17;9.17;;;3.10;99.90;;;;;;5050858;28;20232;-55
2021/12/07 06:02:14;;;;;;;10.37;9.37;;;3.20;99.90;;;;;;5051353;28;20208;-54
2021/12/07 06:04:42;;;;;;;10.30;9.30;;;3.20;99.90;;;;;;5051056;28;20209;-55
2021/12/07 06:07:10;;;;;;;11.87;9.70;;;3.10;99.90;;;;;;5051014;28;20236;-54
2021/12/07 06:09:40;;;;;;;9.90;9.00;;;3.20;99.90;;;;;;5051326;28;20245;-55
2021/12/07 06:12:08;;;;;;;14.57;11.50;;;3.20;99.90;;;;;;5050467;28;20209;-55
2021/12/07 06:14:42;;;;;;;12.90;10.73;;;3.10;99.90;;;;;;5051266;28;20256;-55
2021/12/07 06:17:10;;;;;;;12.27;10.13;;;3.10;99.90;;;;;;5051085;28;20241;-56
2021/12/07 06:19:39;;;;;;;13.10;11.40;;;3.10;99.90;;;;;;5051048;28;20236;-55
2021/12/07 06:22:08;;;;;;;12.65;11.45;;;3.10;99.90;;;;;;5049498;28;20471;-54
2021/12/07 06:24:36;;;;;;;11.03;9.97;;;3.30;99.90;;;;;;5050753;28;20205;-54
2021/12/07 06:27:06;;;;;;;11.43;10.23;;;3.30;99.90;;;;;;5050721;28;20347;-54
2021/12/07 06:29:34;;;;;;;9.47;8.57;;;3.20;99.90;;;;;;5051012;28;20237;-54
2021/12/07 06:32:02;;;;;;;10.90;9.23;;;3.20;99.90;;;;;;5050611;28;20209;-54
2021/12/07 06:34:31;;;;;;;9.67;8.77;;;3.20;99.90;;;;;;5050553;28;20242;-55
2021/12/07 06:37:00;;;;;;;10.57;9.47;;;3.20;99.90;;;;;;5049860;28;20252;-55
2021/12/07 06:39:28;;;;;;;11.50;9.77;;;3.20;99.90;;;;;;5051104;28;20664;-55
2021/12/07 06:41:56;;;;;;;11.00;9.80;;;3.20;99.90;;;;;;5051135;28;20302;-55
2021/12/07 06:44:26;;;;;;;11.00;9.90;;;3.20;99.90;;;;;;5051125;28;20625;-54
2021/12/07 06:46:54;;;;;;;12.57;11.27;;;3.20;99.90;;;;;;5051282;28;20248;-55
2021/12/07 06:49:22;;;;;;;12.90;11.47;;;3.20;99.90;;;;;;5052232;28;20234;-54
2021/12/07 06:51:51;;;;;;;15.53;12.33;;;3.20;99.90;;;;;;5052557;28;20227;-54
2021/12/07 06:54:20;;;;;;;14.13;12.43;;;3.10;99.90;;;;;;5051577;28;20775;-56
2021/12/07 06:56:48;;;;;;;16.27;12.30;;;3.10;99.90;;;;;;5050698;28;20237;-55
2021/12/07 06:59:16;;;;;;;14.03;11.70;;;3.10;99.90;;;;;;5050309;28;20678;-56
2021/12/07 07:01:46;;;;;;;13.63;11.40;;;3.10;99.90;;;;;;5054293;28;20283;-55
2021/12/07 07:04:14;;;;;;;12.30;11.00;;;3.20;99.90;;;;;;5054219;28;20203;-55
2021/12/07 07:06:43;;;;;;;11.57;10.37;;;3.20;99.90;;;;;;5054448;28;20249;-55
2021/12/07 07:09:13;;;;;;;11.50;10.40;;;3.10;99.90;;;;;;5054095;28;20245;-56
2021/12/07 07:11:41;;;;;;;12.33;11.03;;;3.10;99.90;;;;;;5054158;28;20268;-56
2021/12/07 07:14:10;;;;;;;12.80;11.43;;;3.10;99.90;;;;;;5053970;28;20312;-55
2021/12/07 07:16:38;;;;;;;11.40;10.20;;;3.10;99.90;;;;;;5054358;28;20286;-56
2021/12/07 07:19:08;;;;;;;11.50;10.40;;;3.20;99.90;;;;;;5054024;28;20255;-56
2021/12/07 07:21:36;;;;;;;10.73;9.73;;;3.10;99.90;;;;;;5053691;28;20268;-55
2021/12/07 07:24:05;;;;;;;11.07;9.97;;;3.10;99.90;;;;;;5053799;28;20905;-56
2021/12/07 07:26:33;;;;;;;10.93;9.23;;;3.10;99.90;;;;;;5054114;28;20355;-54
2021/12/07 07:29:01;;;;;;;12.43;10.60;;;3.20;99.90;;;;;;5053895;28;20249;-55
2021/12/07 07:31:29;;;;;;;10.33;9.33;;;3.20;99.90;;;;;;5053587;28;20279;-54
2021/12/07 07:33:57;;;;;;;10.00;9.00;;;3.20;99.90;;;;;;5053698;28;20222;-54
2021/12/07 07:36:27;;;;;;;9.30;8.40;;;3.20;99.90;;;;;;5053380;28;20714;-54
2021/12/07 07:38:55;;;;;;;7.80;7.10;;;3.20;99.90;;;;;;5054054;28;20259;-54
2021/12/07 07:41:24;;;;;;;8.30;7.50;;;3.20;99.90;;;;;;5053780;28;20261;-56
2021/12/07 07:43:52;;;;;;;9.03;8.10;;;3.20;99.90;;;;;;5053702;28;20260;-55
2021/12/07 07:46:20;;;;;;;7.43;6.73;;;3.20;99.90;;;;;;5052343;28;20223;-54
2021/12/07 07:48:48;;;;;;;8.03;7.30;;;3.20;99.90;;;;;;5053529;28;20258;-55
2021/12/07 07:51:16;;;;;;;8.40;7.60;;;3.20;99.90;;;;;;5053103;28;20260;-55
2021/12/07 07:53:46;;;;;;;8.70;7.20;;;3.20;99.90;;;;;;5053339;28;20268;-55
2021/12/07 07:56:14;;;;;;;8.70;7.67;;;3.30;99.90;;;;;;5053161;28;20202;-55
2021/12/07 07:58:42;;;;;;;7.00;6.40;;;3.30;99.90;;;;;;5053285;28;20233;-55
2021/12/07 08:01:10;;;;;;;7.23;6.53;;;3.30;99.90;;;;;;5053189;28;20265;-54
2021/12/07 08:03:39;;;;;;;6.37;5.77;;;3.30;99.90;;;;;;5052662;28;20208;-55
2021/12/07 08:06:07;;;;;;;6.27;5.67;;;3.30;99.90;;;;;;5053133;28;20205;-55
2021/12/07 08:08:35;;;;;;;6.63;6.03;;;3.30;99.90;;;;;;5052791;28;20204;-55
2021/12/07 08:11:05;;;;;;;6.50;5.90;;;3.40;99.90;;;;;;5053370;28;20229;-56
2021/12/07 08:13:33;;;;;;;7.03;6.33;;;3.40;99.90;;;;;;5052048;28;20252;-55
2021/12/07 08:16:02;;;;;;;8.07;7.23;;;3.40;99.90;;;;;;5053113;28;20205;-56
2021/12/07 08:18:30;;;;;;;7.13;6.43;;;3.40;99.90;;;;;;5052913;28;20264;-55
2021/12/07 08:20:58;;;;;;;6.40;5.60;;;3.30;99.90;;;;;;5053023;28;20268;-56
2021/12/07 08:23:26;;;;;;;7.73;6.43;;;3.40;99.90;;;;;;5052933;28;20233;-55
2021/12/07 08:25:54;;;;;;;5.50;5.00;;;3.30;99.90;;;;;;5053510;28;20206;-55
2021/12/07 08:28:24;;;;;;;5.27;4.77;;;3.30;99.90;;;;;;5038345;28;20234;-55
2021/12/07 08:30:52;;;;;;;5.63;5.10;;;3.40;99.90;;;;;;5032458;28;20270;-54
2021/12/07 08:33:20;;;;;;;6.03;5.53;;;3.50;99.90;;;;;;5052568;28;20551;-55
2021/12/07 08:35:49;;;;;;;13.83;12.60;;;3.50;99.90;;;;;;5052071;28;20244;-55
2021/12/07 08:38:17;;;;;;;7.00;6.40;;;3.50;99.90;;;;;;5052482;28;20728;-54
2021/12/07 08:40:53;;;;;;;5.40;4.63;;;3.50;99.90;;;;;;5038099;28;20251;-55
2021/12/07 08:43:23;;;;;;;5.50;5.00;;;3.50;99.90;;;;;;5044760;28;20214;-55
2021/12/07 08:45:52;;;;;;;5.50;5.00;;;3.60;99.90;;;;;;5050798;28;20303;-55
2021/12/07 08:48:20;;;;;;;4.93;4.47;;;3.60;99.90;;;;;;5051917;28;20205;-55
2021/12/07 08:50:48;;;;;;;5.10;4.60;;;3.60;99.90;;;;;;5051858;28;20264;-54
2021/12/07 08:53:19;;;;;;;5.50;5.00;;;3.70;99.90;;;;;;5051536;28;20236;-55
2021/12/07 09:01:24;;;;;;;8.07;5.23;;;3.90;99.90;;;;;;5051482;28;20227;-54
2021/12/07 09:03:55;;;;;;;8.33;6.67;;;4.00;99.90;;;;;;5052216;28;20614;-55
2021/12/07 09:06:24;;;;;;;7.10;6.40;;;4.00;99.90;;;;;;5052080;28;20216;-56
2021/12/07 09:08:55;;;;;;;6.53;5.90;;;4.20;99.90;;;;;;5051600;28;20700;-55
2021/12/07 09:11:24;;;;;;;8.40;7.00;;;4.30;99.90;;;;;;5051718;28;20256;-55
2021/12/07 09:13:53;;;;;;;7.80;5.90;;;4.30;99.90;;;;;;5051116;28;20202;-55
2021/12/07 09:16:22;;;;;;;7.10;6.40;;;4.20;99.90;;;;;;5051940;28;20665;-54
2021/12/07 09:18:51;;;;;;;6.70;6.00;;;4.20;99.90;;;;;;5051702;28;20214;-55
2021/12/07 09:21:20;;;;;;;7.10;6.37;;;4.20;99.90;;;;;;5051391;28;20229;-55
2021/12/07 09:23:48;;;;;;;8.30;7.50;;;4.20;99.90;;;;;;5050488;28;20683;-55
2021/12/07 09:26:17;;;;;;;8.37;7.00;;;4.20;99.90;;;;;;5051594;28;20211;-55
2021/12/07 09:28:46;;;;;;;15.17;11.50;;;4.30;99.90;;;;;;5051212;28;20258;-54
2021/12/07 09:31:17;;;;;;;16.70;14.27;;;4.30;99.90;;;;;;5051655;28;20263;-55
2021/12/07 09:33:45;;;;;;;38.80;29.60;;;4.40;99.90;;;;;;5051470;28;20719;-55
2021/12/07 09:36:14;;;;;;;18.20;13.07;;;4.50;99.90;;;;;;5050801;28;20289;-54
2021/12/07 09:38:43;;;;;;;13.20;11.27;;;4.50;99.90;;;;;;5051565;28;20294;-55
2021/12/07 09:41:13;;;;;;;9.57;7.90;;;4.50;99.90;;;;;;5051293;28;20266;-55
2021/12/07 09:43:42;;;;;;;9.87;8.17;;;4.50;99.90;;;;;;5050983;28;20249;-55
2021/12/07 09:46:11;;;;;;;7.77;6.93;;;4.50;99.90;;;;;;5050822;28;20239;-56
2021/12/07 09:48:41;;;;;;;9.53;6.43;;;4.50;99.90;;;;;;5051362;28;20214;-55
2021/12/07 09:51:12;;;;;;;7.90;6.37;;;4.50;99.90;;;;;;5050519;28;20267;-55
2021/12/07 09:53:40;;;;;;;11.10;7.20;;;4.50;99.90;;;;;;5051320;28;20233;-55
2021/12/07 09:56:10;;;;;;;10.20;9.10;;;4.50;99.90;;;;;;5050927;28;20227;-55
2021/12/07 09:58:39;;;;;;;9.37;7.93;;;4.60;99.90;;;;;;5050901;28;20678;-55
2021/12/07 10:01:10;;;;;;;13.47;12.03;;;4.60;99.90;;;;;;5039645;28;20747;-54
2021/12/07 10:03:40;;;;;;;9.43;8.00;;;4.60;99.90;;;;;;5040116;28;20219;-54
2021/12/07 10:06:09;;;;;;;10.93;9.00;;;4.70;99.90;;;;;;5051181;28;20206;-55
2021/12/07 10:08:38;;;;;;;7.73;5.97;;;4.80;99.90;;;;;;5050390;28;20250;-54
2021/12/07 10:11:08;;;;;;;9.33;6.70;;;4.80;99.90;;;;;;5050546;28;20281;-54
2021/12/07 10:13:38;;;;;;;8.00;5.83;;;4.80;99.90;;;;;;5050416;28;20226;-55
2021/12/07 10:16:08;;;;;;;10.03;7.50;;;4.70;99.90;;;;;;5050528;28;20227;-53
2021/12/07 10:18:38;;;;;;;8.63;6.43;;;4.60;99.90;;;;;;5050825;28;20192;-55
2021/12/07 10:21:14;;;;;;;10.03;7.63;;;4.60;99.90;;;;;;5050767;28;20252;-55
2021/12/07 10:23:44;;;;;;;16.87;11.77;;;4.70;99.90;;;;;;5050682;28;20232;-55
2021/12/07 10:26:16;;;;;;;14.30;10.53;;;4.70;99.90;;;;;;5050284;28;20300;-54
2021/12/07 10:28:46;;;;;;;14.67;12.93;;;4.80;99.90;;;;;;5050393;28;20701;-53
2021/12/07 10:31:34;;;;;;;10.67;8.13;;;5.00;99.90;;;;;;5050263;28;20581;-55
2021/12/07 10:34:05;;;;;;;12.30;9.83;;;4.90;99.90;;;;;;5050648;28;20236;-54
2021/12/07 10:36:37;;;;;;;22.87;19.77;;;4.90;99.90;;;;;;5053429;28;20319;-55
2021/12/07 10:39:11;;;;;;;13.33;9.27;;;4.90;99.90;;;;;;5054384;28;20232;-56
2021/12/07 10:41:43;;;;;;;13.37;9.23;;;4.70;99.90;;;;;;5054473;28;20322;-54
2021/12/07 10:44:13;;;;;;;14.43;9.53;;;4.70;99.90;;;;;;5054507;28;20300;-54
2021/12/07 10:46:50;;;;;;;14.68;10.90;;;4.60;99.90;;;;;;5053378;28;20467;-54
2021/12/07 10:49:27;;;;;;;15.87;10.90;;;4.70;99.90;;;;;;5053238;28;20230;-54
2021/12/07 10:52:05;;;;;;;15.80;10.73;;;4.70;99.90;;;;;;5054320;28;20257;-54
2021/12/07 10:54:35;;;;;;;16.13;11.13;;;4.70;99.90;;;;;;5054177;28;20242;-55
2021/12/07 10:57:06;;;;;;;13.50;9.67;;;4.70;99.90;;;;;;5053577;28;21007;-55
2021/12/07 10:59:35;;;;;;;17.63;9.83;;;4.80;99.90;;;;;;5052344;28;20256;-54
2021/12/07 11:02:16;;;;;;;14.70;9.67;;;4.70;99.90;;;;;;5052833;28;20734;-54
2021/12/07 11:04:46;;;;;;;16.37;9.70;;;4.90;99.90;;;;;;5049972;28;20288;-55
2021/12/07 11:07:19;;;;;;;17.47;10.27;;;4.90;99.90;;;;;;5053301;28;20308;-55
2021/12/07 11:09:56;;;;;;;11.53;9.27;;;5.10;99.90;;;;;;5052551;28;20237;-55
2021/12/07 11:12:26;;;;;;;13.63;9.00;;;5.10;99.90;;;;;;5052168;28;20242;-54
2021/12/07 11:14:59;;;;;;;10.97;9.00;;;5.20;99.90;;;;;;5052679;28;20682;-54
2021/12/07 11:17:30;;;;;;;12.60;9.37;;;5.30;99.90;;;;;;5053017;28;20240;-55
2021/12/07 11:20:01;;;;;;;13.33;10.00;;;5.30;99.90;;;;;;5052906;28;20221;-54
2021/12/07 11:22:33;;;;;;;13.73;10.33;;;5.40;99.90;;;;;;5051790;28;20235;-54
2021/12/07 11:25:03;;;;;;;12.70;10.30;;;5.40;99.90;;;;;;5052459;28;20692;-56
2021/12/07 11:30:20;;;;;;;21.63;11.90;;;5.30;99.90;;;;;;5031674;28;20276;-55
2021/12/07 11:32:55;;;;;;;15.80;11.23;;;5.30;99.90;;;;;;5051960;28;20286;-55
2021/12/07 11:35:26;;;;;;;16.53;10.73;;;5.10;99.90;;;;;;5052410;28;20246;-54
2021/12/07 11:37:57;;;;;;;18.77;12.50;;;5.10;99.90;;;;;;5052282;28;20213;-54
2021/12/07 11:40:29;;;;;;;16.07;11.30;;;5.00;99.90;;;;;;5052126;28;20690;-54
2021/12/07 11:42:57;;;;;;;18.90;11.63;;;5.00;99.90;;;;;;5051953;28;20629;-54
2021/12/07 11:45:27;;;;;;;20.40;12.27;;;5.00;99.90;;;;;;5052245;28;20250;-54
2021/12/07 11:47:57;;;;;;;16.03;11.73;;;5.10;99.90;;;;;;5050680;28;20244;-53
2021/12/07 11:50:30;;;;;;;17.90;11.90;;;5.20;99.90;;;;;;5052356;28;20270;-54
2021/12/07 11:53:07;;;;;;;17.60;13.80;;;5.30;99.90;;;;;;5051568;28;20235;-54
2021/12/07 11:55:36;;;;;;;18.50;13.27;;;5.40;99.90;;;;;;5052036;28;20243;-55
2021/12/07 11:58:07;;;;;;;28.50;14.47;;;5.50;99.90;;;;;;5051489;28;20242;-54
2021/12/07 12:00:43;;;;;;;25.70;14.90;;;5.50;99.90;;;;;;5051722;28;20261;-56
2021/12/07 12:03:13;;;;;;;24.43;15.23;;;5.50;99.90;;;;;;5051813;28;20209;-54
2021/12/07 12:05:43;;;;;;;27.57;16.03;;;5.50;99.90;;;;;;5051495;28;20240;-55
2021/12/07 12:08:18;;;;;;;26.93;16.37;;;5.50;99.90;;;;;;5051974;28;20241;-55
2021/12/07 12:10:49;;;;;;;26.43;15.50;;;5.60;99.90;;;;;;5051153;28;20308;-55
2021/12/07 12:13:27;;;;;;;25.83;16.73;;;5.70;99.90;;;;;;5051586;28;20230;-55
2021/12/07 12:16:08;;;;;;;25.10;14.40;;;5.90;99.90;;;;;;5051275;28;20781;-54
2021/12/07 12:18:45;;;;;;;25.10;15.03;;;5.90;99.90;;;;;;5051486;28;20206;-54
2021/12/07 12:21:24;;;;;;;26.47;15.63;;;5.90;99.90;;;;;;5050765;28;20261;-55
2021/12/07 12:24:14;;;;;;;23.23;15.47;;;5.90;99.90;;;;;;5051230;28;20655;-55
2021/12/07 12:26:45;;;;;;;26.43;12.73;;;5.90;99.90;;;;;;5070792;28;20256;-56
2021/12/07 12:29:18;;;;;;;19.53;11.60;;;5.90;99.90;;;;;;5072263;28;20244;-55
2021/12/07 12:31:51;;;;;;;18.57;11.37;;;5.80;99.90;;;;;;5071760;28;20652;-54
2021/12/07 12:34:22;;;;;;;17.83;9.30;;;5.80;99.90;;;;;;5071208;28;20283;-54
2021/12/07 12:37:00;;;;;;;18.70;11.07;;;5.80;99.90;;;;;;5039358;28;20247;-55
2021/12/07 12:39:51;;;;;;;18.30;9.73;;;5.70;99.90;;;;;;5048626;28;20696;-53
2021/12/07 12:42:31;;;;;;;15.10;9.93;;;5.80;99.90;;;;;;5051774;28;20287;-55
2021/12/07 12:45:16;;;;;;;17.23;11.83;;;5.90;99.90;;;;;;5051943;28;20318;-55
2021/12/07 12:47:45;;;;;;;18.00;11.90;;;6.00;99.90;;;;;;5051949;28;20219;-54
2021/12/07 12:50:19;;;;;;;20.30;11.63;;;6.00;99.90;;;;;;5051190;28;20265;-55
2021/12/07 12:52:49;;;;;;;19.07;14.00;;;6.10;99.90;;;;;;5051628;28;20193;-54
2021/12/07 12:55:34;;;;;;;21.23;12.17;;;6.00;99.90;;;;;;5051395;28;20256;-54
2021/12/07 12:58:05;;;;;;;19.97;13.53;;;6.00;99.90;;;;;;5036647;28;20650;-55
2021/12/07 13:00:59;;;;;;;21.13;15.73;;;6.00;99.90;;;;;;5049719;28;20312;-53
2021/12/07 13:03:42;;;;;;;19.03;11.67;;;5.90;99.90;;;;;;5051538;28;20209;-54
2021/12/07 13:06:14;;;;;;;16.80;11.33;;;5.90;99.90;;;;;;5050988;28;20232;-55
2021/12/07 13:08:56;;;;;;;16.20;10.63;;;5.90;99.90;;;;;;5051718;28;20237;-54
2021/12/07 13:11:39;;;;;;;17.20;11.53;;;6.00;99.90;;;;;;5050645;28;20265;-55
2021/12/07 13:14:12;;;;;;;18.03;11.60;;;6.00;99.90;;;;;;5051440;28;20265;-55
2021/12/07 13:16:49;;;;;;;17.47;10.93;;;5.90;99.90;;;;;;5051105;28;20646;-54
2021/12/07 13:19:17;;;;;;;16.70;10.13;;;5.90;99.90;;;;;;5051405;28;20779;-55
2021/12/07 13:21:47;;;;;;;18.17;10.20;;;5.80;99.90;;;;;;5050961;28;20292;-54
2021/12/07 13:24:20;;;;;;;14.63;9.80;;;5.80;99.90;;;;;;5050884;28;20694;-55
2021/12/07 13:26:54;;;;;;;16.70;10.40;;;5.80;99.90;;;;;;5051358;28;20206;-54
2021/12/07 13:29:25;;;;;;;13.63;8.13;;;5.80;99.90;;;;;;5051385;28;20627;-54
2021/12/07 13:31:57;;;;;;;9.73;6.37;;;5.80;99.90;;;;;;5036906;28;20263;-54
2021/12/07 13:34:29;;;;;;;15.17;6.90;;;5.70;99.90;;;;;;5030099;28;20245;-54
2021/12/07 13:36:58;;;;;;;14.30;7.93;;;5.70;99.90;;;;;;5030478;28;20656;-56
2021/12/07 13:39:39;;;;;;;10.77;5.53;;;5.70;99.90;;;;;;5030333;28;20269;-54
2021/12/07 13:42:12;;;;;;;8.63;5.80;;;5.60;99.90;;;;;;5045268;28;20240;-54
2021/12/07 13:44:42;;;;;;;10.80;6.07;;;5.60;99.90;;;;;;5049212;28;20260;-55
2021/12/07 13:47:12;;;;;;;13.23;6.00;;;5.60;99.90;;;;;;5049870;28;20230;-55
2021/12/07 13:49:43;;;;;;;9.93;5.20;;;5.60;99.90;;;;;;5049838;28;20301;-54
2021/12/07 13:52:14;;;;;;;8.57;4.67;;;5.50;99.90;;;;;;5048997;28;20302;-55
2021/12/07 13:54:44;;;;;;;13.13;5.40;;;5.60;99.90;;;;;;5049814;28;20647;-54
2021/12/07 13:57:20;;;;;;;9.27;5.00;;;5.60;99.90;;;;;;5048983;28;20254;-54
2021/12/07 14:00:01;;;;;;;9.40;5.47;;;5.50;99.90;;;;;;5049937;28;20207;-55
2021/12/07 14:02:30;;;;;;;8.93;4.90;;;5.50;99.90;;;;;;5051008;28;20228;-54
2021/12/07 14:05:05;;;;;;;9.90;5.67;;;5.60;99.90;;;;;;5070768;28;20307;-54
2021/12/07 14:07:34;;;;;;;10.63;4.63;;;5.60;99.90;;;;;;5070075;28;20610;-55
2021/12/07 14:10:15;;;;;;;11.77;5.10;;;5.60;99.90;;;;;;5052915;28;20602;-54
2021/12/07 14:12:45;;;;;;;8.13;4.73;;;5.50;99.90;;;;;;5030283;28;20698;-55
2021/12/07 14:15:17;;;;;;;10.50;5.00;;;5.50;99.90;;;;;;5029498;28;20259;-56
2021/12/07 14:17:52;;;;;;;10.97;5.43;;;5.60;99.90;;;;;;5029660;28;20212;-55
2021/12/07 14:20:39;;;;;;;9.93;4.90;;;5.50;99.90;;;;;;5028995;28;20225;-55
2021/12/07 14:23:20;;;;;;;8.97;4.90;;;5.40;99.90;;;;;;5029256;28;20819;-54
2021/12/07 14:25:55;;;;;;;9.03;5.07;;;5.40;99.90;;;;;;5029352;28;20253;-55
2021/12/07 14:28:34;;;;;;;10.10;5.20;;;5.40;99.90;;;;;;5029106;28;20761;-54
2021/12/07 14:31:09;;;;;;;10.20;5.20;;;5.40;99.90;;;;;;5029180;28;20236;-54
2021/12/07 14:33:43;;;;;;;9.47;5.40;;;5.30;99.90;;;;;;5029923;28;20191;-54
2021/12/07 14:36:13;;;;;;;10.17;5.33;;;5.30;99.90;;;;;;5029004;28;20251;-55